sensor_id;sensor_type;location;lat;lon;timestamp;pressure;altitude;pressure_sealevel;temperature;humidity
48563;BME280;34981;49.104;11.396;2022-10-17T00:00:30;99519.16;;;14.08;100.00
48563;BME280;34981;49.104;11.396;2022-10-17T00:02:57;99524.56;;;14.08;100.00
48563;BME280;34981;49.104;11.396;2022-10-17T00:05:24;99524.56;;;14.08;100.00
48563;BME280;34981;49.104;11.396;2022-10-17T00:07:51;99524.97;;;14.04;100.00
48563;BME280;34981;49.104;11.396;2022-10-17T00:10:18;99521.66;;;14.02;100.00
48563;BME280;34981;49.104;11.396;2022-10-17T00:12:46;99519.13;;;14.01;100.00
48563;BME280;34981;49.104;11.396;2022-10-17T00:15:15;99526.41;;;14.00;100.00
48563;BME280;34981;49.104;11.396;2022-10-17T00:17:42;99518.31;;;14.00;100.00
48563;BME280;34981;49.104;11.396;2022-10-17T00:20:09;99523.06;;;13.98;100.00
48563;BME280;34981;49.104;11.396;2022-10-17T00:22:36;99520.38;;;13.98;100.00
48563;BME280;34981;49.104;11.396;2022-10-17T00:25:04;99517.03;;;13.96;100.00
48563;BME280;34981;49.104;11.396;2022-10-17T00:27:33;99515.34;;;13.95;100.00
48563;BME280;34981;49.104;11.396;2022-10-17T00:30:00;99521.84;;;13.94;100.00
48563;BME280;34981;49.104;11.396;2022-10-17T00:32:27;99528.88;;;13.95;100.00
48563;BME280;34981;49.104;11.396;2022-10-17T00:34:56;99519.97;;;13.95;100.00
48563;BME280;34981;49.104;11.396;2022-10-17T00:37:24;99519.13;;;13.94;100.00
48563;BME280;34981;49.104;11.396;2022-10-17T00:39:52;99528.28;;;13.93;100.00
48563;BME280;34981;49.104;11.396;2022-10-17T00:42:19;99524.53;;;13.94;100.00
48563;BME280;34981;49.104;11.396;2022-10-17T00:47:18;99522.88;;;13.93;100.00
48563;BME280;34981;49.104;11.396;2022-10-17T00:49:46;99520.34;;;13.92;100.00
48563;BME280;34981;49.104;11.396;2022-10-17T00:52:15;99524.94;;;13.91;100.00
48563;BME280;34981;49.104;11.396;2022-10-17T00:54:43;99525.13;;;13.90;100.00
48563;BME280;34981;49.104;11.396;2022-10-17T00:57:12;99518.28;;;13.87;100.00
48563;BME280;34981;49.104;11.396;2022-10-17T00:59:40;99527.41;;;13.86;100.00
48563;BME280;34981;49.104;11.396;2022-10-17T01:02:09;99517.84;;;13.84;100.00
48563;BME280;34981;49.104;11.396;2022-10-17T01:04:38;99521.56;;;13.83;100.00
48563;BME280;34981;49.104;11.396;2022-10-17T01:07:06;99520.72;;;13.82;100.00
48563;BME280;34981;49.104;11.396;2022-10-17T01:09:33;99517.41;;;13.80;100.00
48563;BME280;34981;49.104;11.396;2022-10-17T01:14:37;99519.47;;;13.78;100.00
48563;BME280;34981;49.104;11.396;2022-10-17T01:17:18;99514.47;;;13.75;100.00
48563;BME280;34981;49.104;11.396;2022-10-17T01:20:15;99515.31;;;13.76;100.00
48563;BME280;34981;49.104;11.396;2022-10-17T01:22:48;99507.38;;;13.74;100.00
48563;BME280;34981;49.104;11.396;2022-10-17T01:28:27;99505.50;;;13.68;100.00
48563;BME280;34981;49.104;11.396;2022-10-17T01:33:31;99519.00;;;13.61;100.00
48563;BME280;34981;49.104;11.396;2022-10-17T01:38:49;99514.81;;;13.59;100.00
48563;BME280;34981;49.104;11.396;2022-10-17T01:41:23;99513.19;;;13.58;100.00
48563;BME280;34981;49.104;11.396;2022-10-17T01:43:52;99523.16;;;13.57;100.00
48563;BME280;34981;49.104;11.396;2022-10-17T01:48:54;99510.88;;;13.55;100.00
48563;BME280;34981;49.104;11.396;2022-10-17T01:54:02;99508.56;;;13.52;100.00
48563;BME280;34981;49.104;11.396;2022-10-17T01:56:33;99507.31;;;13.48;100.00
48563;BME280;34981;49.104;11.396;2022-10-17T01:59:03;99505.63;;;13.47;100.00
48563;BME280;34981;49.104;11.396;2022-10-17T02:01:32;99496.03;;;13.44;100.00
48563;BME280;34981;49.104;11.396;2022-10-17T02:04:01;99502.72;;;13.42;100.00
48563;BME280;34981;49.104;11.396;2022-10-17T02:06:32;99502.06;;;13.40;100.00
48563;BME280;34981;49.104;11.396;2022-10-17T02:09:00;99493.31;;;13.38;100.00
48563;BME280;34981;49.104;11.396;2022-10-17T02:11:28;99498.09;;;13.36;100.00
48563;BME280;34981;49.104;11.396;2022-10-17T02:19:06;99490.16;;;13.28;100.00
48563;BME280;34981;49.104;11.396;2022-10-17T02:21:50;99493.06;;;13.26;100.00
48563;BME280;34981;49.104;11.396;2022-10-17T02:24:31;99485.16;;;13.24;100.00
48563;BME280;34981;49.104;11.396;2022-10-17T02:29:33;99483.91;;;13.20;100.00
48563;BME280;34981;49.104;11.396;2022-10-17T02:32:05;99487.63;;;13.19;100.00
48563;BME280;34981;49.104;11.396;2022-10-17T02:34:34;99491.38;;;13.18;100.00
48563;BME280;34981;49.104;11.396;2022-10-17T02:37:04;99492.41;;;13.17;100.00
48563;BME280;34981;49.104;11.396;2022-10-17T02:39:31;99487.41;;;13.14;100.00
48563;BME280;34981;49.104;11.396;2022-10-17T02:42:01;99494.00;;;13.12;100.00
48563;BME280;34981;49.104;11.396;2022-10-17T02:44:30;99495.88;;;13.11;100.00
48563;BME280;34981;49.104;11.396;2022-10-17T02:47:00;99487.13;;;13.09;100.00
48563;BME280;34981;49.104;11.396;2022-10-17T02:49:30;99490.00;;;13.08;100.00
48563;BME280;34981;49.104;11.396;2022-10-17T02:52:04;99492.28;;;13.04;100.00
48563;BME280;34981;49.104;11.396;2022-10-17T02:57:37;99476.69;;;13.00;100.00
48563;BME280;34981;49.104;11.396;2022-10-17T03:00:07;99489.56;;;12.98;100.00
48563;BME280;34981;49.104;11.396;2022-10-17T03:05:09;99487.25;;;12.95;100.00
48563;BME280;34981;49.104;11.396;2022-10-17T03:07:37;99497.19;;;12.94;100.00
48563;BME280;34981;49.104;11.396;2022-10-17T03:10:06;99490.53;;;12.90;100.00
48563;BME280;34981;49.104;11.396;2022-10-17T03:12:33;99495.31;;;12.88;100.00
48563;BME280;34981;49.104;11.396;2022-10-17T03:15:01;99498.00;;;12.88;100.00
48563;BME280;34981;49.104;11.396;2022-10-17T03:17:29;99500.06;;;12.86;100.00
48563;BME280;34981;49.104;11.396;2022-10-17T03:19:57;99500.28;;;12.84;100.00
48563;BME280;34981;49.104;11.396;2022-10-17T03:22:24;99501.13;;;12.85;100.00
48563;BME280;34981;49.104;11.396;2022-10-17T03:24:51;99504.19;;;12.82;100.00
48563;BME280;34981;49.104;11.396;2022-10-17T03:27:18;99501.50;;;12.82;100.00
48563;BME280;34981;49.104;11.396;2022-10-17T03:29:46;99498.16;;;12.80;100.00
48563;BME280;34981;49.104;11.396;2022-10-17T03:32:14;99499.41;;;12.77;100.00
48563;BME280;34981;49.104;11.396;2022-10-17T03:34:42;99495.22;;;12.75;100.00
48563;BME280;34981;49.104;11.396;2022-10-17T03:37:09;99496.00;;;12.69;100.00
48563;BME280;34981;49.104;11.396;2022-10-17T03:39:38;99497.03;;;12.68;100.00
48563;BME280;34981;49.104;11.396;2022-10-17T03:42:05;99490.16;;;12.65;100.00
48563;BME280;34981;49.104;11.396;2022-10-17T03:44:32;99503.88;;;12.64;100.00
48563;BME280;34981;49.104;11.396;2022-10-17T03:46:59;99505.91;;;12.62;100.00
48563;BME280;34981;49.104;11.396;2022-10-17T03:49:27;99505.28;;;12.60;100.00
48563;BME280;34981;49.104;11.396;2022-10-17T03:51:54;99510.03;;;12.58;100.00
48563;BME280;34981;49.104;11.396;2022-10-17T03:54:21;99506.72;;;12.56;100.00
48563;BME280;34981;49.104;11.396;2022-10-17T03:56:48;99510.81;;;12.52;100.00
48563;BME280;34981;49.104;11.396;2022-10-17T03:59:17;99507.47;;;12.49;100.00
48563;BME280;34981;49.104;11.396;2022-10-17T04:01:53;99503.31;;;12.47;100.00
48563;BME280;34981;49.104;11.396;2022-10-17T04:04:21;99514.09;;;12.47;100.00
48563;BME280;34981;49.104;11.396;2022-10-17T04:06:48;99512.63;;;12.44;100.00
48563;BME280;34981;49.104;11.396;2022-10-17T04:09:15;99518.03;;;12.44;100.00
48563;BME280;34981;49.104;11.396;2022-10-17T04:11:51;99506.56;;;12.42;100.00
48563;BME280;34981;49.104;11.396;2022-10-17T04:14:19;99509.03;;;12.37;100.00
48563;BME280;34981;49.104;11.396;2022-10-17T04:16:46;99514.84;;;12.34;100.00
48563;BME280;34981;49.104;11.396;2022-10-17T04:19:19;99513.53;;;12.30;100.00
48563;BME280;34981;49.104;11.396;2022-10-17T04:21:46;99513.28;;;12.25;100.00
48563;BME280;34981;49.104;11.396;2022-10-17T04:24:14;99519.25;;;12.21;100.00
48563;BME280;34981;49.104;11.396;2022-10-17T04:26:47;99517.50;;;12.13;100.00
48563;BME280;34981;49.104;11.396;2022-10-17T04:29:15;99511.31;;;12.13;100.00
48563;BME280;34981;49.104;11.396;2022-10-17T04:31:44;99513.16;;;12.12;100.00
48563;BME280;34981;49.104;11.396;2022-10-17T04:34:27;99514.56;;;12.08;100.00
48563;BME280;34981;49.104;11.396;2022-10-17T04:36:55;99514.97;;;12.05;100.00
48563;BME280;34981;49.104;11.396;2022-10-17T04:39:22;99516.59;;;12.06;100.00
48563;BME280;34981;49.104;11.396;2022-10-17T04:41:49;99512.06;;;12.06;100.00
48563;BME280;34981;49.104;11.396;2022-10-17T04:44:16;99515.78;;;12.05;100.00
48563;BME280;34981;49.104;11.396;2022-10-17T04:46:49;99509.56;;;12.05;100.00
48563;BME280;34981;49.104;11.396;2022-10-17T04:49:16;99508.28;;;12.01;100.00
48563;BME280;34981;49.104;11.396;2022-10-17T04:51:47;99515.09;;;11.97;100.00
48563;BME280;34981;49.104;11.396;2022-10-17T04:54:20;99515.47;;;11.94;100.00
48563;BME280;34981;49.104;11.396;2022-10-17T04:56:53;99517.31;;;11.93;100.00
48563;BME280;34981;49.104;11.396;2022-10-17T04:59:20;99512.31;;;11.90;100.00
48563;BME280;34981;49.104;11.396;2022-10-17T05:01:54;99503.94;;;11.85;100.00
48563;BME280;34981;49.104;11.396;2022-10-17T05:04:21;99501.25;;;11.85;100.00
48563;BME280;34981;49.104;11.396;2022-10-17T05:06:51;99497.72;;;11.85;100.00
48563;BME280;34981;49.104;11.396;2022-10-17T05:09:57;99490.66;;;11.84;100.00
48563;BME280;34981;49.104;11.396;2022-10-17T05:12:24;99501.84;;;11.81;100.00
48563;BME280;34981;49.104;11.396;2022-10-17T05:14:52;99495.78;;;11.79;100.00
48563;BME280;34981;49.104;11.396;2022-10-17T05:17:21;99495.78;;;11.79;100.00
48563;BME280;34981;49.104;11.396;2022-10-17T05:19:49;99501.59;;;11.76;100.00
48563;BME280;34981;49.104;11.396;2022-10-17T05:22:16;99501.78;;;11.74;100.00
48563;BME280;34981;49.104;11.396;2022-10-17T05:24:43;99500.91;;;11.74;100.00
48563;BME280;34981;49.104;11.396;2022-10-17T05:27:11;99506.41;;;11.80;100.00
48563;BME280;34981;49.104;11.396;2022-10-17T05:29:38;99517.84;;;11.82;100.00
48563;BME280;34981;49.104;11.396;2022-10-17T05:32:16;99510.59;;;11.83;100.00
48563;BME280;34981;49.104;11.396;2022-10-17T05:34:43;99506.84;;;11.84;100.00
48563;BME280;34981;49.104;11.396;2022-10-17T05:37:10;99510.75;;;11.81;100.00
48563;BME280;34981;49.104;11.396;2022-10-17T05:39:39;99503.03;;;11.78;100.00
48563;BME280;34981;49.104;11.396;2022-10-17T05:42:06;99521.28;;;11.76;100.00
48563;BME280;34981;49.104;11.396;2022-10-17T05:44:34;99519.78;;;11.74;100.00
48563;BME280;34981;49.104;11.396;2022-10-17T05:47:01;99523.47;;;11.73;100.00
48563;BME280;34981;49.104;11.396;2022-10-17T05:49:28;99530.19;;;11.77;100.00
48563;BME280;34981;49.104;11.396;2022-10-17T05:52:14;99524.59;;;11.78;100.00
48563;BME280;34981;49.104;11.396;2022-10-17T05:55:03;99521.72;;;11.80;100.00
48563;BME280;34981;49.104;11.396;2022-10-17T05:57:30;99538.94;;;11.79;100.00
48563;BME280;34981;49.104;11.396;2022-10-17T05:59:59;99533.34;;;11.80;100.00
48563;BME280;34981;49.104;11.396;2022-10-17T06:02:28;99536.50;;;11.84;100.00
48563;BME280;34981;49.104;11.396;2022-10-17T06:04:56;99534.25;;;11.87;100.00
48563;BME280;34981;49.104;11.396;2022-10-17T06:07:26;99540.94;;;11.91;100.00
48563;BME280;34981;49.104;11.396;2022-10-17T06:09:53;99545.47;;;11.91;100.00
48563;BME280;34981;49.104;11.396;2022-10-17T06:12:22;99539.06;;;11.92;100.00
48563;BME280;34981;49.104;11.396;2022-10-17T06:14:49;99555.06;;;11.93;100.00
48563;BME280;34981;49.104;11.396;2022-10-17T06:17:17;99568.00;;;11.98;100.00
48563;BME280;34981;49.104;11.396;2022-10-17T06:19:44;99570.28;;;12.01;100.00
48563;BME280;34981;49.104;11.396;2022-10-17T06:22:13;99584.03;;;12.06;100.00
48563;BME280;34981;49.104;11.396;2022-10-17T06:24:41;99582.63;;;12.10;100.00
48563;BME280;34981;49.104;11.396;2022-10-17T06:27:08;99593.31;;;12.18;100.00
48563;BME280;34981;49.104;11.396;2022-10-17T06:29:39;99600.63;;;12.24;100.00
48563;BME280;34981;49.104;11.396;2022-10-17T06:32:07;99617.34;;;12.34;100.00
48563;BME280;34981;49.104;11.396;2022-10-17T06:34:40;99616.19;;;12.43;100.00
48563;BME280;34981;49.104;11.396;2022-10-17T06:37:08;99628.53;;;12.53;100.00
48563;BME280;34981;49.104;11.396;2022-10-17T06:39:37;99631.13;;;12.61;100.00
48563;BME280;34981;49.104;11.396;2022-10-17T06:42:17;99638.50;;;12.73;100.00
48563;BME280;34981;49.104;11.396;2022-10-17T06:45:16;99643.38;;;12.84;100.00
48563;BME280;34981;49.104;11.396;2022-10-17T06:47:54;99661.56;;;12.97;100.00
48563;BME280;34981;49.104;11.396;2022-10-17T06:50:47;99647.34;;;13.10;100.00
48563;BME280;34981;49.104;11.396;2022-10-17T06:53:18;99654.72;;;13.22;100.00
48563;BME280;34981;49.104;11.396;2022-10-17T06:55:52;99666.03;;;13.33;100.00
48563;BME280;34981;49.104;11.396;2022-10-17T06:58:50;99661.56;;;13.46;100.00
48563;BME280;34981;49.104;11.396;2022-10-17T07:01:27;99677.22;;;13.51;100.00
48563;BME280;34981;49.104;11.396;2022-10-17T07:03:58;99688.25;;;13.56;100.00
48563;BME280;34981;49.104;11.396;2022-10-17T07:06:27;99687.94;;;13.72;100.00
48563;BME280;34981;49.104;11.396;2022-10-17T07:08:56;99685.09;;;13.80;100.00
48563;BME280;34981;49.104;11.396;2022-10-17T07:11:23;99695.34;;;13.91;100.00
48563;BME280;34981;49.104;11.396;2022-10-17T07:13:51;99708.38;;;14.16;100.00
48563;BME280;34981;49.104;11.396;2022-10-17T07:16:20;99713.66;;;14.37;100.00
48563;BME280;34981;49.104;11.396;2022-10-17T07:18:53;99719.53;;;14.40;100.00
48563;BME280;34981;49.104;11.396;2022-10-17T07:21:20;99732.50;;;14.52;100.00
48563;BME280;34981;49.104;11.396;2022-10-17T07:23:47;99751.34;;;14.79;100.00
48563;BME280;34981;49.104;11.396;2022-10-17T07:26:16;99756.16;;;14.91;100.00
48563;BME280;34981;49.104;11.396;2022-10-17T07:28:44;99763.47;;;14.97;100.00
48563;BME280;34981;49.104;11.396;2022-10-17T07:31:26;99768.94;;;15.16;100.00
48563;BME280;34981;49.104;11.396;2022-10-17T07:33:53;99768.09;;;15.09;100.00
48563;BME280;34981;49.104;11.396;2022-10-17T07:36:20;99761.00;;;15.15;100.00
48563;BME280;34981;49.104;11.396;2022-10-17T07:38:47;99771.03;;;15.28;100.00
48563;BME280;34981;49.104;11.396;2022-10-17T07:41:16;99784.38;;;15.49;100.00
48563;BME280;34981;49.104;11.396;2022-10-17T07:43:48;99779.78;;;15.49;100.00
48563;BME280;34981;49.104;11.396;2022-10-17T07:46:19;99789.03;;;15.68;100.00
48563;BME280;34981;49.104;11.396;2022-10-17T07:48:47;99788.38;;;15.73;100.00
48563;BME280;34981;49.104;11.396;2022-10-17T07:51:14;99801.72;;;15.94;100.00
48563;BME280;34981;49.104;11.396;2022-10-17T07:53:41;99803.84;;;15.92;100.00
48563;BME280;34981;49.104;11.396;2022-10-17T07:56:14;99802.56;;;15.88;100.00
48563;BME280;34981;49.104;11.396;2022-10-17T07:58:41;99808.19;;;15.93;100.00
48563;BME280;34981;49.104;11.396;2022-10-17T08:01:09;99812.16;;;16.10;100.00
48563;BME280;34981;49.104;11.396;2022-10-17T08:03:45;99821.94;;;16.24;100.00
48563;BME280;34981;49.104;11.396;2022-10-17T08:06:14;99817.31;;;16.38;100.00
48563;BME280;34981;49.104;11.396;2022-10-17T08:08:41;99806.50;;;16.18;100.00
48563;BME280;34981;49.104;11.396;2022-10-17T08:11:09;99805.88;;;16.16;100.00
48563;BME280;34981;49.104;11.396;2022-10-17T08:13:37;99813.53;;;16.52;100.00
48563;BME280;34981;49.104;11.396;2022-10-17T08:16:05;99811.63;;;16.66;100.00
48563;BME280;34981;49.104;11.396;2022-10-17T08:18:33;99826.88;;;16.67;100.00
48563;BME280;34981;49.104;11.396;2022-10-17T08:21:01;99814.34;;;16.66;100.00
48563;BME280;34981;49.104;11.396;2022-10-17T08:23:32;99791.56;;;16.67;100.00
48563;BME280;34981;49.104;11.396;2022-10-17T08:25:59;99798.03;;;16.59;100.00
48563;BME280;34981;49.104;11.396;2022-10-17T08:28:27;99793.09;;;16.36;100.00
48563;BME280;34981;49.104;11.396;2022-10-17T08:31:04;99805.19;;;16.47;100.00
48563;BME280;34981;49.104;11.396;2022-10-17T08:33:31;99815.78;;;16.75;100.00
48563;BME280;34981;49.104;11.396;2022-10-17T08:35:59;99795.56;;;16.64;100.00
48563;BME280;34981;49.104;11.396;2022-10-17T08:38:29;99797.22;;;16.65;100.00
48563;BME280;34981;49.104;11.396;2022-10-17T08:41:03;99797.56;;;16.82;100.00
48563;BME280;34981;49.104;11.396;2022-10-17T08:46:04;99805.13;;;16.73;100.00
48563;BME280;34981;49.104;11.396;2022-10-17T08:48:40;99825.06;;;17.05;100.00
48563;BME280;34981;49.104;11.396;2022-10-17T08:51:20;99818.44;;;16.95;100.00
48563;BME280;34981;49.104;11.396;2022-10-17T08:54:32;99826.34;;;16.96;100.00
48563;BME280;34981;49.104;11.396;2022-10-17T08:56:39;99828.22;;;16.96;100.00
48563;BME280;34981;49.104;11.396;2022-10-17T08:59:27;99835.53;;;16.95;100.00
48563;BME280;34981;49.104;11.396;2022-10-17T09:20:27;99900.22;;;18.01;100.00
48563;BME280;34981;49.104;11.396;2022-10-17T09:23:04;99884.09;;;17.99;100.00
48563;BME280;34981;49.104;11.396;2022-10-17T09:25:34;99864.16;;;17.80;100.00
48563;BME280;34981;49.104;11.396;2022-10-17T09:30:43;99898.63;;;18.18;100.00
48563;BME280;34981;49.104;11.396;2022-10-17T09:33:19;99891.72;;;18.15;100.00
48563;BME280;34981;49.104;11.396;2022-10-17T09:36:03;99879.84;;;18.10;100.00
48563;BME280;34981;49.104;11.396;2022-10-17T09:38:37;99883.00;;;18.07;100.00
48563;BME280;34981;49.104;11.396;2022-10-17T09:41:05;99892.16;;;18.12;100.00
48563;BME280;34981;49.104;11.396;2022-10-17T09:43:58;99901.53;;;18.41;100.00
48563;BME280;34981;49.104;11.396;2022-10-17T09:46:28;99910.66;;;18.53;100.00
48563;BME280;34981;49.104;11.396;2022-10-17T09:49:00;99913.56;;;18.58;100.00
48563;BME280;34981;49.104;11.396;2022-10-17T09:51:33;99894.38;;;18.47;100.00
48563;BME280;34981;49.104;11.396;2022-10-17T09:54:16;99899.00;;;18.46;100.00
48563;BME280;34981;49.104;11.396;2022-10-17T09:57:02;99887.88;;;18.48;100.00
48563;BME280;34981;49.104;11.396;2022-10-17T09:59:34;99881.63;;;18.65;100.00
48563;BME280;34981;49.104;11.396;2022-10-17T10:04:34;99848.38;;;18.57;100.00
48563;BME280;34981;49.104;11.396;2022-10-17T10:07:22;99839.69;;;18.66;100.00
48563;BME280;34981;49.104;11.396;2022-10-17T10:09:55;99828.78;;;18.66;100.00
48563;BME280;34981;49.104;11.396;2022-10-17T10:12:24;99826.53;;;18.82;100.00
48563;BME280;34981;49.104;11.396;2022-10-17T10:14:52;99824.84;;;18.81;100.00
48563;BME280;34981;49.104;11.396;2022-10-17T10:20:01;99785.19;;;18.85;100.00
48563;BME280;34981;49.104;11.396;2022-10-17T10:22:28;99785.94;;;18.92;100.00
48563;BME280;34981;49.104;11.396;2022-10-17T10:27:53;99756.19;;;19.02;100.00
48563;BME280;34981;49.104;11.396;2022-10-17T10:30:24;99749.53;;;18.98;100.00
48563;BME280;34981;49.104;11.396;2022-10-17T10:32:53;99737.66;;;18.92;100.00
48563;BME280;34981;49.104;11.396;2022-10-17T10:37:51;99762.66;;;19.19;100.00
48563;BME280;34981;49.104;11.396;2022-10-17T10:42:48;99755.34;;;19.31;100.00
48563;BME280;34981;49.104;11.396;2022-10-17T10:45:17;99740.41;;;19.34;100.00
48563;BME280;34981;49.104;11.396;2022-10-17T10:48:24;99703.97;;;19.28;100.00
48563;BME280;34981;49.104;11.396;2022-10-17T10:50:56;99676.88;;;19.15;100.00
48563;BME280;34981;49.104;11.396;2022-10-17T10:56:03;99679.44;;;19.28;100.00
48563;BME280;34981;49.104;11.396;2022-10-17T11:01:14;99658.31;;;19.35;100.00
48563;BME280;34981;49.104;11.396;2022-10-17T11:06:16;99618.09;;;19.19;100.00
48563;BME280;34981;49.104;11.396;2022-10-17T11:08:47;99591.63;;;18.96;100.00
48563;BME280;34981;49.104;11.396;2022-10-17T11:11:16;99591.75;;;19.01;100.00
48563;BME280;34981;49.104;11.396;2022-10-17T11:16:32;99583.69;;;19.07;100.00
48563;BME280;34981;49.104;11.396;2022-10-17T11:19:12;99570.88;;;19.07;100.00
48563;BME280;34981;49.104;11.396;2022-10-17T11:21:46;99564.25;;;19.03;100.00
48563;BME280;34981;49.104;11.396;2022-10-17T11:24:24;99557.16;;;19.14;100.00
48563;BME280;34981;49.104;11.396;2022-10-17T11:26:55;99539.94;;;19.13;100.00
48563;BME280;34981;49.104;11.396;2022-10-17T11:29:26;99541.13;;;19.17;100.00
48563;BME280;34981;49.104;11.396;2022-10-17T11:31:55;99543.13;;;19.33;100.00
48563;BME280;34981;49.104;11.396;2022-10-17T11:34:26;99542.91;;;19.47;100.00
48563;BME280;34981;49.104;11.396;2022-10-17T11:37:00;99534.34;;;19.55;100.00
48563;BME280;34981;49.104;11.396;2022-10-17T11:39:30;99537.19;;;19.60;100.00
48563;BME280;34981;49.104;11.396;2022-10-17T11:42:03;99529.69;;;19.67;100.00
48563;BME280;34981;49.104;11.396;2022-10-17T11:47:04;99509.19;;;19.64;100.00
48563;BME280;34981;49.104;11.396;2022-10-17T11:49:45;99502.66;;;19.54;100.00
48563;BME280;34981;49.104;11.396;2022-10-17T11:52:34;99490.69;;;19.55;100.00
48563;BME280;34981;49.104;11.396;2022-10-17T11:55:26;99479.38;;;19.63;100.00
48563;BME280;34981;49.104;11.396;2022-10-17T12:03:18;99478.88;;;19.66;100.00
48563;BME280;34981;49.104;11.396;2022-10-17T12:05:51;99478.28;;;19.75;100.00
48563;BME280;34981;49.104;11.396;2022-10-17T12:08:29;99470.69;;;19.77;100.00
48563;BME280;34981;49.104;11.396;2022-10-17T12:11:13;99456.19;;;19.77;100.00
48563;BME280;34981;49.104;11.396;2022-10-17T12:13:54;99438.22;;;19.64;100.00
48563;BME280;34981;49.104;11.396;2022-10-17T12:21:29;99432.31;;;19.84;100.00
48563;BME280;34981;49.104;11.396;2022-10-17T12:24:26;99429.06;;;19.87;100.00
48563;BME280;34981;49.104;11.396;2022-10-17T12:26:55;99438.28;;;19.98;100.00
48563;BME280;34981;49.104;11.396;2022-10-17T12:29:25;99436.38;;;19.98;100.00
48563;BME280;34981;49.104;11.396;2022-10-17T12:32:08;99432.50;;;19.94;100.00
48563;BME280;34981;49.104;11.396;2022-10-17T12:34:36;99406.97;;;19.72;100.00
48563;BME280;34981;49.104;11.396;2022-10-17T12:37:04;99421.84;;;19.81;100.00
48563;BME280;34981;49.104;11.396;2022-10-17T12:42:00;99414.84;;;19.85;100.00
48563;BME280;34981;49.104;11.396;2022-10-17T12:49:41;99396.22;;;19.82;100.00
48563;BME280;34981;49.104;11.396;2022-10-17T12:54:39;99389.94;;;19.81;100.00
48563;BME280;34981;49.104;11.396;2022-10-17T12:57:36;99379.50;;;19.78;100.00
48563;BME280;34981;49.104;11.396;2022-10-17T13:00:23;99370.97;;;19.75;100.00
48563;BME280;34981;49.104;11.396;2022-10-17T13:02:52;99371.97;;;19.69;100.00
48563;BME280;34981;49.104;11.396;2022-10-17T13:05:23;99374.22;;;19.72;100.00
48563;BME280;34981;49.104;11.396;2022-10-17T13:07:51;99373.69;;;19.75;100.00
48563;BME280;34981;49.104;11.396;2022-10-17T13:10:21;99380.00;;;19.75;100.00
48563;BME280;34981;49.104;11.396;2022-10-17T13:12:49;99370.88;;;19.70;100.00
48563;BME280;34981;49.104;11.396;2022-10-17T13:15:18;99363.94;;;19.62;100.00
48563;BME280;34981;49.104;11.396;2022-10-17T13:17:53;99352.34;;;19.55;100.00
48563;BME280;34981;49.104;11.396;2022-10-17T13:20:22;99346.38;;;19.58;100.00
48563;BME280;34981;49.104;11.396;2022-10-17T13:22:57;99334.78;;;19.51;100.00
48563;BME280;34981;49.104;11.396;2022-10-17T13:25:25;99342.97;;;19.51;100.00
48563;BME280;34981;49.104;11.396;2022-10-17T13:28:02;99344.84;;;19.51;100.00
48563;BME280;34981;49.104;11.396;2022-10-17T13:30:33;99339.66;;;19.49;100.00
48563;BME280;34981;49.104;11.396;2022-10-17T13:33:00;99334.44;;;19.48;100.00
48563;BME280;34981;49.104;11.396;2022-10-17T13:35:35;99334.91;;;19.44;100.00
48563;BME280;34981;49.104;11.396;2022-10-17T13:38:25;99303.13;;;19.38;100.00
48563;BME280;34981;49.104;11.396;2022-10-17T13:40:52;99314.44;;;19.30;100.00
48563;BME280;34981;49.104;11.396;2022-10-17T13:43:31;99307.31;;;19.29;100.00
48563;BME280;34981;49.104;11.396;2022-10-17T13:46:00;99310.06;;;19.29;100.00
48563;BME280;34981;49.104;11.396;2022-10-17T13:48:49;99286.03;;;19.15;100.00
48563;BME280;34981;49.104;11.396;2022-10-17T13:51:17;99282.41;;;19.09;100.00
48563;BME280;34981;49.104;11.396;2022-10-17T13:53:44;99274.38;;;19.02;100.00
48563;BME280;34981;49.104;11.396;2022-10-17T13:58:56;99247.88;;;18.86;100.00
48563;BME280;34981;49.104;11.396;2022-10-17T14:01:26;99244.81;;;18.83;100.00
48563;BME280;34981;49.104;11.396;2022-10-17T14:03:54;99254.66;;;18.84;100.00
48563;BME280;34981;49.104;11.396;2022-10-17T14:06:36;99270.50;;;18.87;100.00
48563;BME280;34981;49.104;11.396;2022-10-17T14:09:25;99276.63;;;18.94;100.00
48563;BME280;34981;49.104;11.396;2022-10-17T14:11:57;99281.38;;;18.98;100.00
48563;BME280;34981;49.104;11.396;2022-10-17T14:14:25;99291.09;;;18.94;100.00
48563;BME280;34981;49.104;11.396;2022-10-17T14:16:54;99302.50;;;18.91;100.00
48563;BME280;34981;49.104;11.396;2022-10-17T14:19:26;99314.25;;;18.92;100.00
48563;BME280;34981;49.104;11.396;2022-10-17T14:21:54;99321.00;;;18.89;100.00
48563;BME280;34981;49.104;11.396;2022-10-17T14:26:54;99307.97;;;18.80;100.00
48563;BME280;34981;49.104;11.396;2022-10-17T14:29:23;99316.06;;;18.75;100.00
48563;BME280;34981;49.104;11.396;2022-10-17T14:32:01;99330.41;;;18.70;100.00
48563;BME280;34981;49.104;11.396;2022-10-17T14:34:30;99325.06;;;18.63;100.00
48563;BME280;34981;49.104;11.396;2022-10-17T14:36:58;99324.38;;;18.56;100.00
48563;BME280;34981;49.104;11.396;2022-10-17T14:39:25;99328.84;;;18.51;100.00
48563;BME280;34981;49.104;11.396;2022-10-17T14:41:53;99315.59;;;18.43;100.00
48563;BME280;34981;49.104;11.396;2022-10-17T14:44:22;99309.81;;;18.39;100.00
48563;BME280;34981;49.104;11.396;2022-10-17T14:46:51;99302.59;;;18.33;100.00
48563;BME280;34981;49.104;11.396;2022-10-17T14:49:38;99298.06;;;18.27;100.00